Terminal Aerodrome Forecast
Issued by NWS Chicago, IL

Home | Current Version | Previous Version | Graphics & Text | Print | Product List | Glossary On
Versions: 1 2 3 4 5 6 7 8 9 10 11 12 13 14 15 16 17 18 19 20 21 22 23 24 25 26 27 28 29 30 31 32
000
FTUS43 KLOT 202300
TAFRFD
TAF
KRFD 202340Z 2100/2124 23011G19KT P6SM FEW040
     FM210400 27010KT P6SM -SHRA BKN040
     FM210600 30012G17KT P6SM SCT030 BKN060
     FM211200 31013G18KT P6SM BKN020 OVC050
     FM211700 33015G24KT P6SM VCSH BKN030
     FM212100 35012G20KT P6SM SCT035=

USA.gov is the U.S. government's official web portal to all federal, state and local government web resources and services.